sensor_id;sensor_type;location;lat;lon;timestamp;pressure;altitude;pressure_sealevel;temperature;humidity
73429;BME280;61643;49.564;17.412;2022-07-09T00:00:59;99097.25;;;11.95;81.46
73429;BME280;61643;49.564;17.412;2022-07-09T00:03:24;99100.19;;;12.10;79.90
73429;BME280;61643;49.564;17.412;2022-07-09T00:05:50;99093.25;;;12.14;79.37
73429;BME280;61643;49.564;17.412;2022-07-09T00:08:15;99096.25;;;12.01;80.16
73429;BME280;61643;49.564;17.412;2022-07-09T00:10:40;99091.75;;;11.90;80.41
73429;BME280;61643;49.564;17.412;2022-07-09T00:13:06;99090.69;;;11.74;80.92
73429;BME280;61643;49.564;17.412;2022-07-09T00:15:32;99094.22;;;11.63;82.51
73429;BME280;61643;49.564;17.412;2022-07-09T00:17:57;99090.44;;;11.76;81.65
73429;BME280;61643;49.564;17.412;2022-07-09T00:20:23;99086.72;;;11.94;80.79
73429;BME280;61643;49.564;17.412;2022-07-09T00:22:48;99088.66;;;11.98;80.41
73429;BME280;61643;49.564;17.412;2022-07-09T00:25:14;99077.97;;;12.03;80.33
73429;BME280;61643;49.564;17.412;2022-07-09T00:27:39;99071.84;;;12.08;80.02
73429;BME280;61643;49.564;17.412;2022-07-09T00:30:05;99071.31;;;11.94;80.47
73429;BME280;61643;49.564;17.412;2022-07-09T00:32:30;99076.47;;;11.79;80.96
73429;BME280;61643;49.564;17.412;2022-07-09T00:34:56;99074.69;;;11.56;81.30
73429;BME280;61643;49.564;17.412;2022-07-09T00:37:21;99077.56;;;11.38;82.24
73429;BME280;61643;49.564;17.412;2022-07-09T00:39:47;99076.66;;;11.32;82.17
73429;BME280;61643;49.564;17.412;2022-07-09T00:42:12;99066.84;;;11.26;82.31
73429;BME280;61643;49.564;17.412;2022-07-09T00:44:38;99069.00;;;11.13;82.79
73429;BME280;61643;49.564;17.412;2022-07-09T00:47:05;99065.50;;;11.01;83.55
73429;BME280;61643;49.564;17.412;2022-07-09T00:49:32;99068.47;;;10.99;83.37
73429;BME280;61643;49.564;17.412;2022-07-09T00:51:59;99065.03;;;11.04;82.96
73429;BME280;61643;49.564;17.412;2022-07-09T00:54:25;99067.34;;;11.12;82.53
73429;BME280;61643;49.564;17.412;2022-07-09T00:56:52;99058.25;;;11.01;83.23
73429;BME280;61643;49.564;17.412;2022-07-09T00:59:20;99053.56;;;10.97;83.61
73429;BME280;61643;49.564;17.412;2022-07-09T01:01:46;99062.34;;;11.04;83.50
73429;BME280;61643;49.564;17.412;2022-07-09T01:04:12;99053.66;;;11.13;82.82
73429;BME280;61643;49.564;17.412;2022-07-09T01:06:37;99060.66;;;11.14;82.24
73429;BME280;61643;49.564;17.412;2022-07-09T01:09:03;99052.88;;;11.01;82.29
73429;BME280;61643;49.564;17.412;2022-07-09T01:11:29;99057.38;;;10.84;84.00
73429;BME280;61643;49.564;17.412;2022-07-09T01:13:55;99047.53;;;10.78;82.92
73429;BME280;61643;49.564;17.412;2022-07-09T01:16:21;99058.69;;;10.70;83.37
73429;BME280;61643;49.564;17.412;2022-07-09T01:18:47;99061.00;;;10.78;83.13
73429;BME280;61643;49.564;17.412;2022-07-09T01:21:13;99049.31;;;10.72;83.84
73429;BME280;61643;49.564;17.412;2022-07-09T01:23:39;99046.28;;;10.69;83.32
73429;BME280;61643;49.564;17.412;2022-07-09T01:26:06;99047.59;;;10.55;84.72
73429;BME280;61643;49.564;17.412;2022-07-09T01:28:31;99044.53;;;10.51;84.31
73429;BME280;61643;49.564;17.412;2022-07-09T01:30:57;99042.88;;;10.62;83.64
73429;BME280;61643;49.564;17.412;2022-07-09T01:33:22;99044.06;;;10.66;83.19
73429;BME280;61643;49.564;17.412;2022-07-09T01:35:47;99045.94;;;10.54;83.92
73429;BME280;61643;49.564;17.412;2022-07-09T01:38:13;99049.59;;;10.48;84.36
73429;BME280;61643;49.564;17.412;2022-07-09T01:40:38;99044.63;;;10.68;82.86
73429;BME280;61643;49.564;17.412;2022-07-09T01:43:03;99036.66;;;10.73;82.79
73429;BME280;61643;49.564;17.412;2022-07-09T01:45:29;99033.84;;;10.68;82.60
73429;BME280;61643;49.564;17.412;2022-07-09T01:47:54;99035.28;;;10.59;83.81
73429;BME280;61643;49.564;17.412;2022-07-09T01:50:20;99042.53;;;10.70;83.44
73429;BME280;61643;49.564;17.412;2022-07-09T01:52:45;99037.84;;;10.65;82.78
73429;BME280;61643;49.564;17.412;2022-07-09T01:55:11;99044.41;;;10.69;82.68
73429;BME280;61643;49.564;17.412;2022-07-09T01:57:36;99037.97;;;10.70;83.06
73429;BME280;61643;49.564;17.412;2022-07-09T02:00:03;99040.69;;;10.59;83.61
73429;BME280;61643;49.564;17.412;2022-07-09T02:02:29;99038.00;;;10.47;85.55
73429;BME280;61643;49.564;17.412;2022-07-09T02:04:54;99029.22;;;10.52;84.60
73429;BME280;61643;49.564;17.412;2022-07-09T02:07:20;99029.88;;;10.70;84.08
73429;BME280;61643;49.564;17.412;2022-07-09T02:09:45;99031.91;;;10.63;85.14
73429;BME280;61643;49.564;17.412;2022-07-09T02:12:11;99038.31;;;10.74;84.03
73429;BME280;61643;49.564;17.412;2022-07-09T02:14:36;99030.53;;;10.89;83.91
73429;BME280;61643;49.564;17.412;2022-07-09T02:17:02;99031.66;;;11.05;83.44
73429;BME280;61643;49.564;17.412;2022-07-09T02:19:27;99028.91;;;11.16;82.90
73429;BME280;61643;49.564;17.412;2022-07-09T02:21:52;99030.81;;;11.32;83.16
73429;BME280;61643;49.564;17.412;2022-07-09T02:24:18;99035.94;;;11.46;83.21
73429;BME280;61643;49.564;17.412;2022-07-09T02:26:43;99021.97;;;11.49;83.62
73429;BME280;61643;49.564;17.412;2022-07-09T02:29:09;99022.28;;;11.35;84.95
73429;BME280;61643;49.564;17.412;2022-07-09T02:31:34;99019.66;;;11.41;85.22
73429;BME280;61643;49.564;17.412;2022-07-09T02:33:59;99020.53;;;11.29;86.26
73429;BME280;61643;49.564;17.412;2022-07-09T02:36:25;99016.25;;;11.45;85.20
73429;BME280;61643;49.564;17.412;2022-07-09T02:38:50;99006.84;;;11.48;85.91
73429;BME280;61643;49.564;17.412;2022-07-09T02:41:17;99002.94;;;11.39;85.31
73429;BME280;61643;49.564;17.412;2022-07-09T02:43:42;99008.97;;;11.46;86.00
73429;BME280;61643;49.564;17.412;2022-07-09T02:46:09;99006.47;;;11.56;85.19
73429;BME280;61643;49.564;17.412;2022-07-09T02:48:34;99004.09;;;11.59;83.92
73429;BME280;61643;49.564;17.412;2022-07-09T02:51:00;99006.28;;;11.62;84.13
73429;BME280;61643;49.564;17.412;2022-07-09T02:53:25;99007.69;;;11.65;84.14
73429;BME280;61643;49.564;17.412;2022-07-09T02:55:51;99012.59;;;11.68;84.05
73429;BME280;61643;49.564;17.412;2022-07-09T02:58:16;99005.56;;;11.67;84.20
73429;BME280;61643;49.564;17.412;2022-07-09T03:00:42;99015.03;;;11.69;83.78
73429;BME280;61643;49.564;17.412;2022-07-09T03:03:08;99018.75;;;11.80;83.31
73429;BME280;61643;49.564;17.412;2022-07-09T03:05:34;99011.16;;;11.77;84.71
73429;BME280;61643;49.564;17.412;2022-07-09T03:08:00;99009.94;;;11.84;83.61
73429;BME280;61643;49.564;17.412;2022-07-09T03:10:26;99007.66;;;11.93;83.03
73429;BME280;61643;49.564;17.412;2022-07-09T03:12:52;99007.72;;;11.98;82.28
73429;BME280;61643;49.564;17.412;2022-07-09T03:15:17;99009.44;;;12.04;82.20
73429;BME280;61643;49.564;17.412;2022-07-09T03:17:48;99003.56;;;12.07;81.69
73429;BME280;61643;49.564;17.412;2022-07-09T03:20:14;99008.13;;;12.07;82.26
73429;BME280;61643;49.564;17.412;2022-07-09T03:22:40;99005.75;;;12.10;82.28
73429;BME280;61643;49.564;17.412;2022-07-09T03:25:07;99002.41;;;12.03;83.41
73429;BME280;61643;49.564;17.412;2022-07-09T03:27:33;99004.13;;;12.09;82.85
73429;BME280;61643;49.564;17.412;2022-07-09T03:29:59;98997.41;;;12.12;81.59
73429;BME280;61643;49.564;17.412;2022-07-09T03:32:25;98996.25;;;12.24;81.75
73429;BME280;61643;49.564;17.412;2022-07-09T03:34:51;98994.94;;;12.27;80.60
73429;BME280;61643;49.564;17.412;2022-07-09T03:37:18;98997.53;;;12.39;81.04
73429;BME280;61643;49.564;17.412;2022-07-09T03:39:43;98992.44;;;12.42;82.21
73429;BME280;61643;49.564;17.412;2022-07-09T03:42:10;98996.03;;;12.48;81.19
73429;BME280;61643;49.564;17.412;2022-07-09T03:44:35;98988.38;;;12.40;82.21
73429;BME280;61643;49.564;17.412;2022-07-09T03:47:01;98997.94;;;12.47;80.90
73429;BME280;61643;49.564;17.412;2022-07-09T03:49:26;98992.56;;;12.52;81.97
73429;BME280;61643;49.564;17.412;2022-07-09T03:51:52;98987.31;;;12.41;82.07
73429;BME280;61643;49.564;17.412;2022-07-09T03:54:18;98989.00;;;12.47;83.68
73429;BME280;61643;49.564;17.412;2022-07-09T03:56:43;98989.25;;;12.45;81.56
73429;BME280;61643;49.564;17.412;2022-07-09T03:59:09;98990.69;;;12.53;80.49
73429;BME280;61643;49.564;17.412;2022-07-09T04:01:34;98981.84;;;12.57;81.15
73429;BME280;61643;49.564;17.412;2022-07-09T04:04:00;98996.91;;;12.75;81.20
73429;BME280;61643;49.564;17.412;2022-07-09T04:06:25;98987.81;;;12.81;81.85
73429;BME280;61643;49.564;17.412;2022-07-09T04:08:51;98988.56;;;12.76;82.21
73429;BME280;61643;49.564;17.412;2022-07-09T04:11:16;98980.22;;;12.78;81.09
73429;BME280;61643;49.564;17.412;2022-07-09T04:13:42;98985.78;;;12.93;81.32
73429;BME280;61643;49.564;17.412;2022-07-09T04:16:07;98985.88;;;12.98;81.10
73429;BME280;61643;49.564;17.412;2022-07-09T04:18:34;98987.78;;;13.03;81.54
73429;BME280;61643;49.564;17.412;2022-07-09T04:20:59;98976.16;;;13.02;82.99
73429;BME280;61643;49.564;17.412;2022-07-09T04:23:24;98973.84;;;13.11;82.20
73429;BME280;61643;49.564;17.412;2022-07-09T04:25:50;98974.78;;;13.21;80.39
73429;BME280;61643;49.564;17.412;2022-07-09T04:28:17;98975.69;;;13.32;80.29
73429;BME280;61643;49.564;17.412;2022-07-09T04:30:44;98975.28;;;13.45;78.86
73429;BME280;61643;49.564;17.412;2022-07-09T04:33:09;98964.81;;;13.54;78.23
73429;BME280;61643;49.564;17.412;2022-07-09T04:35:35;98978.94;;;13.61;78.52
73429;BME280;61643;49.564;17.412;2022-07-09T04:38:01;98975.00;;;13.73;77.51
73429;BME280;61643;49.564;17.412;2022-07-09T04:40:26;98964.53;;;13.87;76.77
73429;BME280;61643;49.564;17.412;2022-07-09T04:42:52;98970.38;;;14.11;76.51
73429;BME280;61643;49.564;17.412;2022-07-09T04:45:17;98973.31;;;14.41;75.79
73429;BME280;61643;49.564;17.412;2022-07-09T04:47:43;98967.75;;;14.68;73.94
73429;BME280;61643;49.564;17.412;2022-07-09T04:50:08;98973.75;;;14.80;72.48
73429;BME280;61643;49.564;17.412;2022-07-09T04:52:34;98979.22;;;14.95;72.01
73429;BME280;61643;49.564;17.412;2022-07-09T04:55:00;98968.69;;;15.04;72.86
73429;BME280;61643;49.564;17.412;2022-07-09T04:57:25;98969.78;;;15.08;72.22
73429;BME280;61643;49.564;17.412;2022-07-09T04:59:51;98958.66;;;15.04;72.76
73429;BME280;61643;49.564;17.412;2022-07-09T05:02:16;98964.59;;;15.01;72.57
73429;BME280;61643;49.564;17.412;2022-07-09T05:04:41;98967.31;;;15.01;72.06
73429;BME280;61643;49.564;17.412;2022-07-09T05:07:07;98962.16;;;15.05;72.72
73429;BME280;61643;49.564;17.412;2022-07-09T05:09:32;98959.78;;;15.18;71.83
73429;BME280;61643;49.564;17.412;2022-07-09T05:11:58;98965.25;;;15.34;71.12
73429;BME280;61643;49.564;17.412;2022-07-09T05:14:24;98974.72;;;15.46;70.80
73429;BME280;61643;49.564;17.412;2022-07-09T05:16:49;98968.53;;;15.61;70.62
73429;BME280;61643;49.564;17.412;2022-07-09T05:19:15;98966.66;;;15.77;69.62
73429;BME280;61643;49.564;17.412;2022-07-09T05:21:41;98968.28;;;15.88;68.78
73429;BME280;61643;49.564;17.412;2022-07-09T05:24:07;98966.34;;;15.93;68.00
73429;BME280;61643;49.564;17.412;2022-07-09T05:26:35;98965.53;;;16.08;68.95
73429;BME280;61643;49.564;17.412;2022-07-09T05:29:02;98975.53;;;16.17;68.43
73429;BME280;61643;49.564;17.412;2022-07-09T05:31:27;98969.56;;;16.25;67.95
73429;BME280;61643;49.564;17.412;2022-07-09T05:33:53;98959.81;;;16.14;67.42
73429;BME280;61643;49.564;17.412;2022-07-09T05:36:18;98964.94;;;16.21;67.29
73429;BME280;61643;49.564;17.412;2022-07-09T05:38:44;98970.69;;;16.09;68.08
73429;BME280;61643;49.564;17.412;2022-07-09T05:41:10;98962.53;;;16.09;68.82
73429;BME280;61643;49.564;17.412;2022-07-09T05:43:36;98968.25;;;16.13;68.33
73429;BME280;61643;49.564;17.412;2022-07-09T05:46:01;98964.69;;;16.17;67.90
73429;BME280;61643;49.564;17.412;2022-07-09T05:48:26;98967.94;;;16.14;68.15
73429;BME280;61643;49.564;17.412;2022-07-09T05:50:52;98957.13;;;16.09;67.61
73429;BME280;61643;49.564;17.412;2022-07-09T05:53:17;98959.00;;;16.09;67.71
73429;BME280;61643;49.564;17.412;2022-07-09T05:55:42;98958.22;;;15.98;67.51
73429;BME280;61643;49.564;17.412;2022-07-09T05:58:09;98962.00;;;15.92;68.29
73429;BME280;61643;49.564;17.412;2022-07-09T06:00:35;98966.38;;;15.98;69.31
73429;BME280;61643;49.564;17.412;2022-07-09T06:03:00;98963.63;;;16.03;68.73
73429;BME280;61643;49.564;17.412;2022-07-09T06:05:26;98961.44;;;15.95;67.51
73429;BME280;61643;49.564;17.412;2022-07-09T06:07:51;98966.59;;;16.12;68.00
73429;BME280;61643;49.564;17.412;2022-07-09T06:10:17;98966.06;;;16.15;68.41
73429;BME280;61643;49.564;17.412;2022-07-09T06:12:42;98948.41;;;16.12;67.55
73429;BME280;61643;49.564;17.412;2022-07-09T06:15:09;98950.56;;;16.25;67.52
73429;BME280;61643;49.564;17.412;2022-07-09T06:17:35;98957.00;;;16.50;66.75
73429;BME280;61643;49.564;17.412;2022-07-09T06:20:00;98952.00;;;16.82;67.64
73429;BME280;61643;49.564;17.412;2022-07-09T06:22:26;98953.63;;;16.88;66.67
73429;BME280;61643;49.564;17.412;2022-07-09T06:24:51;98946.63;;;16.72;65.68
73429;BME280;61643;49.564;17.412;2022-07-09T06:27:16;98952.00;;;16.82;66.19
73429;BME280;61643;49.564;17.412;2022-07-09T06:29:42;98953.69;;;16.68;66.47
73429;BME280;61643;49.564;17.412;2022-07-09T06:32:08;98953.69;;;16.78;66.18
73429;BME280;61643;49.564;17.412;2022-07-09T06:34:33;98958.03;;;16.69;67.48
73429;BME280;61643;49.564;17.412;2022-07-09T06:36:58;98950.50;;;16.56;68.35
73429;BME280;61643;49.564;17.412;2022-07-09T06:39:24;98955.38;;;16.49;68.83
73429;BME280;61643;49.564;17.412;2022-07-09T06:42:08;98954.88;;;16.42;68.56
73429;BME280;61643;49.564;17.412;2022-07-09T06:44:34;98954.88;;;16.37;68.54
73429;BME280;61643;49.564;17.412;2022-07-09T06:46:59;98947.00;;;16.30;69.06
73429;BME280;61643;49.564;17.412;2022-07-09T06:49:25;98941.88;;;16.23;72.11
73429;BME280;61643;49.564;17.412;2022-07-09T06:51:50;98935.63;;;16.18;70.22
73429;BME280;61643;49.564;17.412;2022-07-09T06:54:15;98932.91;;;16.18;69.97
73429;BME280;61643;49.564;17.412;2022-07-09T06:56:41;98941.84;;;16.29;70.72
73429;BME280;61643;49.564;17.412;2022-07-09T06:59:06;98938.56;;;16.32;69.48
73429;BME280;61643;49.564;17.412;2022-07-09T07:01:31;98934.47;;;16.39;69.20
73429;BME280;61643;49.564;17.412;2022-07-09T07:03:57;98939.09;;;16.44;68.47
73429;BME280;61643;49.564;17.412;2022-07-09T07:06:22;98932.00;;;16.43;68.66
73429;BME280;61643;49.564;17.412;2022-07-09T07:08:48;98934.41;;;16.64;67.59
73429;BME280;61643;49.564;17.412;2022-07-09T07:11:13;98938.16;;;16.79;66.41
73429;BME280;61643;49.564;17.412;2022-07-09T07:13:39;98930.94;;;17.08;66.42
73429;BME280;61643;49.564;17.412;2022-07-09T07:16:05;98935.22;;;17.19;66.89
73429;BME280;61643;49.564;17.412;2022-07-09T07:18:30;98936.00;;;17.25;65.84
73429;BME280;61643;49.564;17.412;2022-07-09T07:20:56;98934.69;;;17.17;65.57
73429;BME280;61643;49.564;17.412;2022-07-09T07:23:21;98932.75;;;17.22;67.14
73429;BME280;61643;49.564;17.412;2022-07-09T07:25:46;98937.94;;;17.19;66.21
73429;BME280;61643;49.564;17.412;2022-07-09T07:28:13;98941.28;;;17.11;66.93
73429;BME280;61643;49.564;17.412;2022-07-09T07:30:38;98938.84;;;17.04;67.72
73429;BME280;61643;49.564;17.412;2022-07-09T07:33:04;98941.59;;;16.99;66.62
73429;BME280;61643;49.564;17.412;2022-07-09T07:35:29;98942.13;;;17.01;65.81
73429;BME280;61643;49.564;17.412;2022-07-09T07:37:55;98934.00;;;16.96;65.26
73429;BME280;61643;49.564;17.412;2022-07-09T07:40:22;98937.75;;;17.05;66.13
73429;BME280;61643;49.564;17.412;2022-07-09T07:42:47;98933.38;;;17.09;66.12
73429;BME280;61643;49.564;17.412;2022-07-09T07:45:13;98923.72;;;17.27;67.03
73429;BME280;61643;49.564;17.412;2022-07-09T07:47:38;98932.28;;;17.49;67.31
73429;BME280;61643;49.564;17.412;2022-07-09T07:50:04;98926.84;;;17.49;64.11
73429;BME280;61643;49.564;17.412;2022-07-09T07:52:30;98929.22;;;17.61;62.18
73429;BME280;61643;49.564;17.412;2022-07-09T07:54:56;98919.88;;;17.72;61.49
73429;BME280;61643;49.564;17.412;2022-07-09T07:57:21;98925.25;;;17.77;63.43
73429;BME280;61643;49.564;17.412;2022-07-09T07:59:47;98919.81;;;17.77;62.67
73429;BME280;61643;49.564;17.412;2022-07-09T08:02:12;98916.38;;;17.95;62.84
73429;BME280;61643;49.564;17.412;2022-07-09T08:04:38;98911.13;;;18.04;63.31
73429;BME280;61643;49.564;17.412;2022-07-09T08:07:03;98917.16;;;18.01;60.29
73429;BME280;61643;49.564;17.412;2022-07-09T08:09:29;98913.50;;;18.10;61.91
73429;BME280;61643;49.564;17.412;2022-07-09T08:11:55;98909.00;;;18.25;64.06
73429;BME280;61643;49.564;17.412;2022-07-09T08:14:21;98910.03;;;18.29;63.23
73429;BME280;61643;49.564;17.412;2022-07-09T08:16:46;98907.81;;;18.31;60.24
73429;BME280;61643;49.564;17.412;2022-07-09T08:19:12;98915.00;;;18.27;58.96
73429;BME280;61643;49.564;17.412;2022-07-09T08:21:39;98902.56;;;18.15;58.88
73429;BME280;61643;49.564;17.412;2022-07-09T08:24:05;98899.25;;;18.18;60.06
73429;BME280;61643;49.564;17.412;2022-07-09T08:26:31;98902.91;;;18.33;60.70
73429;BME280;61643;49.564;17.412;2022-07-09T08:28:56;98899.03;;;18.39;61.56
73429;BME280;61643;49.564;17.412;2022-07-09T08:31:22;98891.28;;;18.51;60.82
73429;BME280;61643;49.564;17.412;2022-07-09T08:33:48;98893.38;;;18.59;58.77
73429;BME280;61643;49.564;17.412;2022-07-09T08:36:15;98887.59;;;18.60;58.10
73429;BME280;61643;49.564;17.412;2022-07-09T08:38:40;98890.28;;;18.65;58.91
73429;BME280;61643;49.564;17.412;2022-07-09T08:41:06;98892.00;;;18.80;57.42
73429;BME280;61643;49.564;17.412;2022-07-09T08:43:33;98888.69;;;19.02;58.92
73429;BME280;61643;49.564;17.412;2022-07-09T08:45:59;98888.03;;;18.91;55.69
73429;BME280;61643;49.564;17.412;2022-07-09T08:48:25;98882.13;;;18.84;57.27
73429;BME280;61643;49.564;17.412;2022-07-09T08:50:51;98882.63;;;18.86;56.10
73429;BME280;61643;49.564;17.412;2022-07-09T08:53:18;98876.72;;;18.98;54.73
73429;BME280;61643;49.564;17.412;2022-07-09T08:55:46;98872.75;;;19.09;55.84
73429;BME280;61643;49.564;17.412;2022-07-09T08:58:13;98878.22;;;19.09;56.73
73429;BME280;61643;49.564;17.412;2022-07-09T09:00:41;98876.63;;;19.03;48.97
73429;BME280;61643;49.564;17.412;2022-07-09T09:03:07;98874.59;;;19.13;52.77
73429;BME280;61643;49.564;17.412;2022-07-09T09:05:33;98869.41;;;19.31;54.49
73429;BME280;61643;49.564;17.412;2022-07-09T09:07:58;98864.88;;;19.58;54.28
73429;BME280;61643;49.564;17.412;2022-07-09T09:10:26;98862.09;;;19.77;52.35
73429;BME280;61643;49.564;17.412;2022-07-09T09:12:56;98857.66;;;19.81;51.96
73429;BME280;61643;49.564;17.412;2022-07-09T09:15:22;98864.38;;;19.56;49.28
73429;BME280;61643;49.564;17.412;2022-07-09T09:17:47;98858.28;;;19.27;49.15
73429;BME280;61643;49.564;17.412;2022-07-09T09:20:16;98868.53;;;19.16;52.81
73429;BME280;61643;49.564;17.412;2022-07-09T09:22:53;98851.56;;;19.20;53.28
73429;BME280;61643;49.564;17.412;2022-07-09T09:25:24;98847.66;;;19.26;52.21
73429;BME280;61643;49.564;17.412;2022-07-09T09:27:57;98851.84;;;19.37;50.69
73429;BME280;61643;49.564;17.412;2022-07-09T09:30:25;98854.03;;;19.53;50.32
73429;BME280;61643;49.564;17.412;2022-07-09T09:33:01;98844.06;;;19.76;50.51
73429;BME280;61643;49.564;17.412;2022-07-09T09:35:27;98849.75;;;19.93;50.85
73429;BME280;61643;49.564;17.412;2022-07-09T09:37:54;98856.66;;;20.04;49.01
73429;BME280;61643;49.564;17.412;2022-07-09T09:40:20;98840.88;;;20.01;48.15
73429;BME280;61643;49.564;17.412;2022-07-09T09:42:48;98841.38;;;20.03;48.55
73429;BME280;61643;49.564;17.412;2022-07-09T09:45:14;98847.53;;;20.09;49.96
73429;BME280;61643;49.564;17.412;2022-07-09T09:47:44;98830.53;;;20.12;48.76
73429;BME280;61643;49.564;17.412;2022-07-09T09:50:16;98837.34;;;20.14;45.92
73429;BME280;61643;49.564;17.412;2022-07-09T09:52:44;98837.44;;;20.09;47.93
73429;BME280;61643;49.564;17.412;2022-07-09T09:55:11;98833.19;;;20.03;46.42
73429;BME280;61643;49.564;17.412;2022-07-09T09:57:38;98843.50;;;20.06;48.59
73429;BME280;61643;49.564;17.412;2022-07-09T10:00:05;98838.44;;;20.13;48.08
73429;BME280;61643;49.564;17.412;2022-07-09T10:02:32;98838.03;;;20.20;49.17
73429;BME280;61643;49.564;17.412;2022-07-09T10:05:01;98831.56;;;20.30;47.23
73429;BME280;61643;49.564;17.412;2022-07-09T10:07:26;98824.38;;;20.34;48.19
73429;BME280;61643;49.564;17.412;2022-07-09T10:09:56;98825.41;;;20.38;48.04
73429;BME280;61643;49.564;17.412;2022-07-09T10:12:30;98826.69;;;20.27;47.27
73429;BME280;61643;49.564;17.412;2022-07-09T10:14:57;98820.94;;;20.14;48.03
73429;BME280;61643;49.564;17.412;2022-07-09T10:17:24;98816.06;;;20.11;48.17
73429;BME280;61643;49.564;17.412;2022-07-09T10:20:02;98811.41;;;20.12;44.83
73429;BME280;61643;49.564;17.412;2022-07-09T10:25:01;98811.31;;;20.44;46.75
73429;BME280;61643;49.564;17.412;2022-07-09T10:27:28;98798.34;;;20.50;48.51
73429;BME280;61643;49.564;17.412;2022-07-09T10:29:57;98796.13;;;20.38;45.59
73429;BME280;61643;49.564;17.412;2022-07-09T10:32:28;98800.41;;;20.31;44.31
73429;BME280;61643;49.564;17.412;2022-07-09T10:34:58;98807.16;;;20.47;47.05
73429;BME280;61643;49.564;17.412;2022-07-09T10:37:31;98802.16;;;20.62;47.87
73429;BME280;61643;49.564;17.412;2022-07-09T10:40:04;98791.31;;;20.71;45.53
73429;BME280;61643;49.564;17.412;2022-07-09T10:42:32;98791.00;;;20.73;45.46
73429;BME280;61643;49.564;17.412;2022-07-09T10:44:58;98783.38;;;20.70;45.28
73429;BME280;61643;49.564;17.412;2022-07-09T10:47:23;98785.22;;;20.74;46.19
73429;BME280;61643;49.564;17.412;2022-07-09T10:49:48;98788.22;;;20.86;42.63
73429;BME280;61643;49.564;17.412;2022-07-09T10:52:14;98782.50;;;20.96;43.71
73429;BME280;61643;49.564;17.412;2022-07-09T10:54:48;98784.97;;;21.06;45.24
73429;BME280;61643;49.564;17.412;2022-07-09T10:57:14;98787.66;;;20.98;44.56
73429;BME280;61643;49.564;17.412;2022-07-09T10:59:45;98780.97;;;20.68;43.42
73429;BME280;61643;49.564;17.412;2022-07-09T11:02:19;98781.31;;;20.53;43.35
73429;BME280;61643;49.564;17.412;2022-07-09T11:04:48;98775.75;;;20.44;43.57
73429;BME280;61643;49.564;17.412;2022-07-09T11:07:23;98780.13;;;20.45;44.63
73429;BME280;61643;49.564;17.412;2022-07-09T11:09:48;98771.44;;;20.43;43.10
73429;BME280;61643;49.564;17.412;2022-07-09T11:12:21;98765.28;;;20.60;42.60
73429;BME280;61643;49.564;17.412;2022-07-09T11:14:49;98764.63;;;20.77;42.63
73429;BME280;61643;49.564;17.412;2022-07-09T11:17:20;98756.88;;;20.92;41.19
73429;BME280;61643;49.564;17.412;2022-07-09T11:19:47;98750.13;;;20.98;40.78
73429;BME280;61643;49.564;17.412;2022-07-09T11:22:14;98752.94;;;21.07;42.43
73429;BME280;61643;49.564;17.412;2022-07-09T11:24:40;98749.50;;;21.15;40.86
73429;BME280;61643;49.564;17.412;2022-07-09T11:27:07;98759.88;;;21.27;39.56
73429;BME280;61643;49.564;17.412;2022-07-09T11:29:34;98750.59;;;21.36;41.99
73429;BME280;61643;49.564;17.412;2022-07-09T11:32:00;98740.34;;;21.50;41.59
73429;BME280;61643;49.564;17.412;2022-07-09T11:34:27;98741.78;;;21.48;42.78
73429;BME280;61643;49.564;17.412;2022-07-09T11:36:55;98736.13;;;21.44;42.04
73429;BME280;61643;49.564;17.412;2022-07-09T11:41:51;98733.00;;;21.68;41.57
73429;BME280;61643;49.564;17.412;2022-07-09T11:44:24;98736.66;;;21.55;41.89
73429;BME280;61643;49.564;17.412;2022-07-09T11:47:07;98723.19;;;21.36;39.23
73429;BME280;61643;49.564;17.412;2022-07-09T11:49:51;98732.06;;;21.42;39.93
73429;BME280;61643;49.564;17.412;2022-07-09T11:55:00;98722.84;;;21.69;41.53
73429;BME280;61643;49.564;17.412;2022-07-09T11:57:26;98729.09;;;21.91;40.85
73429;BME280;61643;49.564;17.412;2022-07-09T11:59:53;98714.50;;;21.82;38.57
73429;BME280;61643;49.564;17.412;2022-07-09T12:02:32;98722.38;;;22.06;41.06
73429;BME280;61643;49.564;17.412;2022-07-09T12:04:59;98711.72;;;22.22;40.54
73429;BME280;61643;49.564;17.412;2022-07-09T12:07:25;98710.59;;;22.05;38.60
73429;BME280;61643;49.564;17.412;2022-07-09T12:10:05;98707.03;;;22.05;40.76
73429;BME280;61643;49.564;17.412;2022-07-09T12:12:32;98702.22;;;22.19;39.42
73429;BME280;61643;49.564;17.412;2022-07-09T12:14:59;98696.28;;;22.34;40.75
73429;BME280;61643;49.564;17.412;2022-07-09T12:17:27;98699.16;;;22.46;40.76
73429;BME280;61643;49.564;17.412;2022-07-09T12:19:53;98694.47;;;22.47;39.79
73429;BME280;61643;49.564;17.412;2022-07-09T12:22:20;98685.94;;;22.40;38.22
73429;BME280;61643;49.564;17.412;2022-07-09T12:24:47;98682.88;;;22.41;41.21
73429;BME280;61643;49.564;17.412;2022-07-09T12:27:13;98680.13;;;22.41;39.50
73429;BME280;61643;49.564;17.412;2022-07-09T12:29:38;98684.19;;;22.35;41.56
73429;BME280;61643;49.564;17.412;2022-07-09T12:32:05;98675.44;;;22.33;39.71
73429;BME280;61643;49.564;17.412;2022-07-09T12:34:30;98673.38;;;22.39;40.79
73429;BME280;61643;49.564;17.412;2022-07-09T12:36:56;98661.56;;;22.47;38.54
73429;BME280;61643;49.564;17.412;2022-07-09T12:39:22;98669.00;;;22.64;39.66
73429;BME280;61643;49.564;17.412;2022-07-09T12:41:47;98665.44;;;22.54;37.05
73429;BME280;61643;49.564;17.412;2022-07-09T12:44:13;98644.97;;;22.35;38.56
73429;BME280;61643;49.564;17.412;2022-07-09T12:46:38;98645.63;;;22.32;42.47
73429;BME280;61643;49.564;17.412;2022-07-09T12:49:03;98662.22;;;22.52;39.41
73429;BME280;61643;49.564;17.412;2022-07-09T12:51:29;98649.97;;;22.67;38.41
73429;BME280;61643;49.564;17.412;2022-07-09T12:53:54;98639.00;;;22.67;37.16